Time;durP1;ratioP1;P1;durP2;ratioP2;P2;SDS_P1;SDS_P2;PMS_P1;PMS_P2;Temp;Humidity;BMP_temperature;BMP_pressure;BME280_temperature;BME280_humidity;BME280_pressure;Samples;Min_cycle;Max_cycle;Signal;HPM_P1;HPM_P2
2022/03/20 00:01:13;;;;;;;20.77;6.43;;;;;;;7.88;23.58;101704.56;5008952;28;20177;-68
2022/03/20 00:03:39;;;;;;;17.00;6.13;;;;;;;7.83;23.81;101700.47;5010330;28;20045;-68
2022/03/20 00:06:05;;;;;;;18.43;5.57;;;;;;;7.68;23.68;101667.84;5011037;28;20073;-68
2022/03/20 00:08:31;;;;;;;19.40;7.23;;;;;;;7.73;23.59;101673.72;4992225;28;20080;-69
2022/03/20 00:11:02;;;;;;;19.87;6.37;;;;;;;7.90;23.93;101689.41;4992645;28;20049;-68
2022/03/20 00:13:28;;;;;;;21.97;7.00;;;;;;;7.82;24.05;101691.69;4977626;28;20042;-69
2022/03/20 00:15:56;;;;;;;23.60;6.53;;;;;;;7.83;23.98;101689.88;4993445;28;20081;-69
2022/03/20 00:18:26;;;;;;;17.80;6.43;;;;;;;7.83;24.01;101692.53;5026218;28;20056;-70
2022/03/20 00:20:54;;;;;;;15.53;7.50;;;;;;;7.85;24.35;101680.94;5010196;28;20417;-69
2022/03/20 00:23:22;;;;;;;17.00;7.30;;;;;;;7.76;24.03;101685.91;5026526;28;20049;-69
2022/03/20 00:25:48;;;;;;;23.77;7.83;;;;;;;7.77;24.12;101688.47;5008957;28;20053;-69
2022/03/20 00:28:16;;;;;;;20.17;8.27;;;;;;;7.90;24.42;101684.13;5007820;28;20048;-69
2022/03/20 00:30:43;;;;;;;20.67;7.80;;;;;;;7.84;24.39;101679.22;4991234;28;20265;-69
2022/03/20 00:33:09;;;;;;;19.17;7.23;;;;;;;7.68;24.48;101670.50;5007206;28;20627;-69
2022/03/20 00:35:35;;;;;;;20.10;7.63;;;;;;;7.77;24.51;101669.09;4974522;28;20221;-69
2022/03/20 00:38:01;;;;;;;18.17;7.30;;;;;;;7.72;24.54;101674.66;4974765;28;20085;-69
2022/03/20 00:40:27;;;;;;;16.43;7.77;;;;;;;7.73;24.97;101664.94;5008649;28;20456;-68
2022/03/20 00:42:55;;;;;;;17.47;8.07;;;;;;;7.60;24.80;101642.78;5009063;28;20140;-69
2022/03/20 00:45:21;;;;;;;24.53;8.00;;;;;;;7.73;24.95;101670.22;5009434;28;20038;-69
2022/03/20 00:47:49;;;;;;;28.07;7.63;;;;;;;7.75;24.98;101655.94;4977284;28;20042;-69
2022/03/20 00:50:15;;;;;;;19.70;8.00;;;;;;;7.83;25.00;101660.78;5009490;28;20041;-68
2022/03/20 00:52:41;;;;;;;22.40;8.27;;;;;;;7.76;24.80;101654.16;4993201;28;20966;-69
2022/03/20 00:55:07;;;;;;;20.43;8.00;;;;;;;7.73;25.09;101655.22;4958365;28;20165;-69
2022/03/20 00:57:33;;;;;;;22.27;7.90;;;;;;;7.71;25.01;101661.50;5025487;28;20037;-68
2022/03/20 00:59:59;;;;;;;21.97;7.87;;;;;;;7.68;25.28;101667.00;4993014;28;20398;-68
2022/03/20 01:02:24;;;;;;;19.83;7.70;;;;;;;7.68;25.25;101670.50;4960608;28;20133;-69
2022/03/20 01:04:50;;;;;;;23.03;8.20;;;;;;;7.56;25.49;101643.91;4960957;28;20503;-69
2022/03/20 01:07:16;;;;;;;20.40;6.83;;;;;;;7.69;25.42;101666.91;4976829;28;20058;-69
2022/03/20 01:09:42;;;;;;;15.30;6.97;;;;;;;7.57;25.49;101637.66;4993193;28;20053;-69
2022/03/20 01:12:09;;;;;;;17.20;6.73;;;;;;;7.69;25.54;101658.09;4993253;28;20049;-69
2022/03/20 01:14:35;;;;;;;19.63;7.13;;;;;;;7.70;25.42;101663.31;5009425;28;20112;-69
2022/03/20 01:17:01;;;;;;;15.50;7.00;;;;;;;7.74;25.68;101653.41;4976657;28;20506;-69
2022/03/20 01:19:27;;;;;;;18.43;6.60;;;;;;;7.56;25.70;101633.34;5009468;28;20180;-69
2022/03/20 01:21:54;;;;;;;18.80;7.20;;;;;;;7.71;25.94;101650.94;4992822;28;20049;-68
2022/03/20 01:24:29;;;;;;;18.87;7.23;;;;;;;7.60;25.94;101653.34;5010405;28;20553;-69
2022/03/20 01:26:56;;;;;;;15.07;6.80;;;;;;;7.61;25.94;101655.91;4976839;28;20046;-68
2022/03/20 01:29:21;;;;;;;24.63;8.30;;;;;;;7.51;26.29;101656.53;5009164;28;20045;-68
2022/03/20 01:31:49;;;;;;;20.20;7.17;;;;;;;7.51;26.05;101661.84;4996277;28;20133;-68
2022/03/20 01:34:14;;;;;;;18.27;7.90;;;;;;;7.47;26.17;101662.97;4964140;28;20046;-68
2022/03/20 01:36:41;;;;;;;22.63;8.80;;;;;;;7.43;26.42;101661.41;4989723;28;20058;-67
2022/03/20 01:39:08;;;;;;;24.83;9.37;;;;;;;7.36;26.42;101649.50;4990498;28;20062;-69
2022/03/20 01:41:33;;;;;;;18.77;8.60;;;;;;;7.28;26.67;101657.88;4975033;28;20137;-69
2022/03/20 01:44:01;;;;;;;21.10;8.70;;;;;;;7.31;26.95;101659.50;4973978;28;20479;-68
2022/03/20 01:46:29;;;;;;;20.53;9.03;;;;;;;7.31;26.90;101656.84;4974099;28;20558;-69
2022/03/20 01:48:55;;;;;;;32.10;9.80;;;;;;;7.21;26.88;101651.22;4989889;28;20051;-69
2022/03/20 01:52:10;;;;;;;26.20;8.93;;;;;;;7.21;26.88;101650.41;4990342;28;20049;-69
2022/03/20 01:54:13;;;;;;;29.70;9.40;;;;;;;7.26;27.10;101635.97;4973499;28;20427;-69
2022/03/20 01:56:44;;;;;;;23.77;8.97;;;;;;;7.17;27.31;101628.56;4973637;28;20042;-69
2022/03/20 01:59:10;;;;;;;25.73;10.60;;;;;;;7.15;27.09;101643.66;4973759;28;20134;-69
2022/03/20 02:01:36;;;;;;;25.00;9.50;;;;;;;7.10;27.68;101653.66;4990044;28;20058;-69
2022/03/20 02:04:02;;;;;;;26.13;9.33;;;;;;;7.11;27.75;101641.28;4974470;28;20047;-70
2022/03/20 02:06:28;;;;;;;27.13;9.67;;;;;;;7.08;27.88;101633.53;4974691;28;20038;-69
2022/03/20 02:08:55;;;;;;;28.43;8.97;;;;;;;7.11;28.01;101633.34;4973652;28;20042;-68
2022/03/20 02:11:22;;;;;;;26.63;9.23;;;;;;;7.19;27.81;101631.13;4989467;28;20113;-68
2022/03/20 02:13:48;;;;;;;18.23;9.07;;;;;;;7.12;27.92;101637.72;4989466;28;20050;-69
2022/03/20 02:16:14;;;;;;;28.83;9.77;;;;;;;7.09;28.00;101638.72;4956818;28;20039;-69
2022/03/20 02:18:40;;;;;;;22.00;8.70;;;;;;;7.13;28.11;101642.06;4987942;28;20458;-68
2022/03/20 02:21:05;;;;;;;26.50;8.90;;;;;;;7.11;28.22;101646.56;5003060;28;20047;-69
2022/03/20 02:23:34;;;;;;;21.47;10.63;;;;;;;7.12;28.09;101643.00;4987073;28;20086;-69
2022/03/20 02:26:00;;;;;;;22.07;9.50;;;;;;;7.13;28.24;101639.41;4987108;28;20126;-68
2022/03/20 02:28:26;;;;;;;24.37;9.20;;;;;;;7.05;28.50;101642.50;4986861;28;20089;-69
2022/03/20 02:30:52;;;;;;;25.03;9.00;;;;;;;7.01;28.71;101627.75;5003267;28;20055;-69
2022/03/20 02:33:21;;;;;;;18.17;9.03;;;;;;;6.98;28.60;101624.44;4954560;28;20045;-70
2022/03/20 02:35:47;;;;;;;16.63;7.80;;;;;;;6.99;28.77;101629.63;4988914;28;20105;-69
2022/03/20 02:38:13;;;;;;;17.23;8.30;;;;;;;6.98;28.82;101621.78;5003027;28;20051;-70
2022/03/20 02:40:39;;;;;;;17.47;7.83;;;;;;;7.04;28.66;101629.38;4972488;28;20043;-70
2022/03/20 02:43:08;;;;;;;17.00;8.47;;;;;;;7.04;28.73;101593.25;4971428;28;20047;-70
2022/03/20 02:45:34;;;;;;;23.67;7.83;;;;;;;7.09;28.69;101624.69;4988959;28;20054;-69
2022/03/20 02:48:01;;;;;;;13.77;7.57;;;;;;;7.14;28.74;101628.75;4988595;28;20070;-69
2022/03/20 02:50:34;;;;;;;15.70;7.30;;;;;;;7.22;28.59;101621.25;4973974;28;20039;-70
2022/03/20 02:53:02;;;;;;;23.63;8.40;;;;;;;7.18;28.84;101627.63;4956409;28;20043;-70
2022/03/20 02:55:32;;;;;;;17.13;7.90;;;;;;;7.03;28.82;101601.25;4954710;28;20499;-70
2022/03/20 02:58:01;;;;;;;15.97;8.37;;;;;;;7.10;29.18;101618.44;4970599;28;20051;-69
2022/03/20 03:00:30;;;;;;;15.33;7.50;;;;;;;7.08;28.99;101625.59;4954725;28;20043;-69
2022/03/20 03:02:57;;;;;;;17.60;7.63;;;;;;;7.07;29.07;101618.63;4954730;28;20078;-69
2022/03/20 03:05:25;;;;;;;26.07;8.10;;;;;;;6.96;28.99;101594.59;4970985;28;20046;-69
2022/03/20 03:10:57;;;;;;;13.97;7.47;;;;;;;6.98;29.24;101596.19;4971534;28;20415;-68
2022/03/20 03:13:39;;;;;;;17.47;7.77;;;;;;;7.10;29.12;101621.94;4973484;28;20034;-69
2022/03/20 03:16:13;;;;;;;19.43;7.47;;;;;;;7.01;29.37;101608.41;4971825;28;20117;-68
2022/03/20 03:18:40;;;;;;;18.00;7.40;;;;;;;7.01;29.36;101605.75;4988127;28;20487;-69
2022/03/20 03:21:09;;;;;;;18.00;7.47;;;;;;;7.03;29.38;101603.91;4973010;28;20043;-69
2022/03/20 03:23:36;;;;;;;19.13;7.43;;;;;;;6.86;29.60;101607.47;4971798;28;20043;-69
2022/03/20 03:26:04;;;;;;;18.43;7.80;;;;;;;6.83;29.45;101608.50;4972945;28;20070;-69
2022/03/20 03:28:34;;;;;;;14.57;7.07;;;;;;;6.78;29.67;101613.19;4955722;28;20047;-69
2022/03/20 03:31:01;;;;;;;19.27;7.23;;;;;;;6.86;29.68;101613.63;4987542;28;20047;-69
2022/03/20 03:33:28;;;;;;;17.80;7.60;;;;;;;6.75;29.83;101602.81;4939754;28;20074;-69
2022/03/20 03:35:54;;;;;;;13.93;7.60;;;;;;;6.56;30.05;101612.69;4971471;28;20129;-69
2022/03/20 03:38:30;;;;;;;19.20;7.67;;;;;;;6.64;29.78;101599.06;4989843;28;20120;-68
2022/03/20 03:40:59;;;;;;;20.43;7.43;;;;;;;6.40;30.34;101609.19;4991089;28;20038;-68
2022/03/20 03:43:24;;;;;;;20.10;7.50;;;;;;;6.37;30.18;101613.78;4974254;28;20053;-68
2022/03/20 03:45:53;;;;;;;18.40;6.93;;;;;;;6.33;30.32;101602.56;5007300;28;20864;-69
2022/03/20 03:48:22;;;;;;;19.47;7.43;;;;;;;6.33;30.45;101610.47;4990917;28;20096;-68
2022/03/20 03:50:51;;;;;;;17.47;7.40;;;;;;;6.45;30.55;101615.06;4990924;28;20125;-69
2022/03/20 03:53:17;;;;;;;17.40;7.43;;;;;;;6.24;30.66;101610.13;5007105;28;20525;-70
2022/03/20 03:55:43;;;;;;;15.20;7.40;;;;;;;6.22;30.67;101609.31;5007574;28;20055;-70
2022/03/20 03:58:10;;;;;;;15.47;7.93;;;;;;;6.30;30.95;101613.28;4990737;28;20046;-69
2022/03/20 04:00:36;;;;;;;19.07;7.87;;;;;;;6.19;30.74;101599.81;4990520;28;20038;-68
2022/03/20 04:03:02;;;;;;;13.70;7.50;;;;;;;6.15;31.15;101594.78;4990772;28;20517;-68
2022/03/20 04:05:28;;;;;;;19.97;7.87;;;;;;;6.18;31.17;101591.97;5007040;28;20080;-70
2022/03/20 04:07:55;;;;;;;19.97;8.40;;;;;;;6.06;31.19;101589.97;4990386;28;20529;-69
2022/03/20 04:10:21;;;;;;;18.53;7.87;;;;;;;6.07;31.57;101600.47;4991826;28;20042;-70
2022/03/20 04:12:47;;;;;;;18.33;7.70;;;;;;;5.95;31.60;101569.44;4990440;28;20037;-70
2022/03/20 04:15:14;;;;;;;23.03;8.00;;;;;;;6.16;31.63;101594.69;4990349;28;20133;-70
2022/03/20 04:17:40;;;;;;;15.23;7.30;;;;;;;6.15;31.67;101584.22;4958037;28;20057;-68
2022/03/20 04:20:07;;;;;;;30.50;8.87;;;;;;;6.18;31.80;101587.53;4974289;28;20423;-68
2022/03/20 04:22:38;;;;;;;21.50;8.40;;;;;;;6.18;31.98;101598.09;5006619;28;20042;-68
2022/03/20 04:25:04;;;;;;;;;;;;;;;6.38;31.57;101594.38;4974533;28;20046;-68
2022/03/20 04:27:31;;;;;;;13.40;7.17;;;;;;;6.11;31.89;101594.09;5006892;28;19924;-69
2022/03/20 04:29:57;;;;;;;24.67;8.20;;;;;;;6.11;31.96;101591.44;4958106;28;20495;-67
2022/03/20 04:32:23;;;;;;;23.23;7.63;;;;;;;6.07;31.90;101582.00;4958043;28;20211;-70
2022/03/20 04:34:49;;;;;;;20.50;8.20;;;;;;;6.09;32.00;101587.19;4990125;28;20103;-70
2022/03/20 04:37:16;;;;;;;18.90;9.03;;;;;;;6.19;32.10;101588.38;5006267;28;20058;-71
2022/03/20 04:39:43;;;;;;;16.83;8.20;;;;;;;6.26;32.15;101589.75;4942228;28;20050;-70
2022/03/20 04:42:10;;;;;;;21.23;8.43;;;;;;;6.22;31.90;101588.22;5006248;28;20042;-70
2022/03/20 04:44:40;;;;;;;23.27;8.63;;;;;;;6.34;32.13;101590.19;5006140;28;20042;-69
2022/03/20 04:58:28;;;;;;;24.83;8.70;;;;;;;6.39;32.08;101589.03;4989927;28;20058;-69
2022/03/20 05:00:51;;;;;;;21.47;9.50;;;;;;;6.44;32.67;101579.03;5006273;28;20044;-68
2022/03/20 05:03:18;;;;;;;24.47;9.83;;;;;;;6.52;32.64;101587.38;4989557;28;20042;-69
2022/03/20 05:05:46;;;;;;;22.67;9.83;;;;;;;6.58;32.62;101592.31;4992890;28;20046;-67
2022/03/20 05:08:11;;;;;;;22.07;9.90;;;;;;;6.59;32.62;101578.22;4993709;28;20145;-67
2022/03/20 05:13:22;;;;;;;27.27;10.77;;;;;;;6.78;32.94;101594.69;4993273;28;20042;-67
2022/03/20 05:15:48;;;;;;;28.47;11.67;;;;;;;6.87;32.86;101588.91;5009890;28;20077;-67
2022/03/20 05:18:14;;;;;;;24.57;13.00;;;;;;;6.94;32.80;101586.75;4993276;28;20088;-66
2022/03/20 05:20:43;;;;;;;36.13;12.87;;;;;;;7.00;32.81;101586.41;5009885;28;20407;-67
2022/03/20 05:23:09;;;;;;;27.17;12.33;;;;;;;6.94;32.89;101555.06;5009149;28;20054;-68
2022/03/20 05:25:36;;;;;;;28.23;12.90;;;;;;;7.14;32.77;101570.63;4993591;28;20050;-68
2022/03/20 05:28:02;;;;;;;35.03;13.47;;;;;;;7.20;32.63;101566.75;4993622;28;20406;-67
2022/03/20 05:30:28;;;;;;;30.27;11.70;;;;;;;7.31;32.66;101559.03;4994327;28;20046;-67
2022/03/20 05:32:54;;;;;;;30.77;12.53;;;;;;;7.39;32.76;101562.97;5009371;28;20495;-68
2022/03/20 05:35:20;;;;;;;31.67;12.27;;;;;;;7.47;32.93;101557.22;4993127;28;20057;-67
2022/03/20 05:37:46;;;;;;;28.73;13.00;;;;;;;7.56;32.85;101554.00;4989564;28;20414;-69
2022/03/20 05:40:15;;;;;;;27.53;11.00;;;;;;;7.63;33.26;101518.31;4941527;28;20124;-69
2022/03/20 05:42:42;;;;;;;27.77;11.53;;;;;;;7.76;33.06;101548.38;4973671;28;20049;-68
2022/03/20 05:45:11;;;;;;;29.20;11.67;;;;;;;7.95;33.02;101549.78;4989572;28;20069;-66
2022/03/20 05:47:40;;;;;;;33.27;11.67;;;;;;;7.86;32.93;101508.00;4974029;28;20046;-67
2022/03/20 05:50:07;;;;;;;22.63;10.70;;;;;;;8.15;33.34;101545.88;4973932;28;20066;-66
2022/03/20 05:52:35;;;;;;;24.20;10.40;;;;;;;8.10;33.21;101526.81;4989946;28;20046;-66
2022/03/20 05:55:01;;;;;;;24.40;10.43;;;;;;;8.32;33.81;101532.47;4974664;28;20043;-66
2022/03/20 06:00:24;;;;;;;24.97;9.43;;;;;;;8.59;33.79;101523.59;4973350;28;20418;-68
2022/03/20 06:02:50;;;;;;;19.33;8.87;;;;;;;8.72;33.43;101526.28;4940825;28;20050;-68
2022/03/20 06:05:16;;;;;;;19.37;9.30;;;;;;;8.84;33.23;101527.28;4941446;28;20038;-67
2022/03/20 06:07:46;;;;;;;22.00;9.03;;;;;;;9.00;33.15;101527.97;4989366;28;20494;-68
2022/03/20 06:10:14;;;;;;;21.50;9.30;;;;;;;9.16;33.12;101520.69;4973250;28;20087;-68
2022/03/20 06:12:40;;;;;;;32.03;8.47;;;;;;;9.15;32.87;101521.66;4957063;28;20626;-68
2022/03/20 06:15:09;;;;;;;19.00;8.07;;;;;;;9.33;32.88;101515.94;4974020;28;20058;-68
2022/03/20 06:17:41;;;;;;;26.10;9.53;;;;;;;9.57;32.69;101508.09;4974497;28;20047;-68
2022/03/20 06:20:09;;;;;;;20.37;8.30;;;;;;;9.64;32.76;101512.88;4973250;28;20049;-66
2022/03/20 06:22:36;;;;;;;16.57;7.77;;;;;;;9.74;32.92;101503.34;4973299;28;20043;-66
2022/03/20 06:25:09;;;;;;;23.73;8.23;;;;;;;10.00;32.38;101507.66;4973266;28;20459;-68
2022/03/20 06:27:41;;;;;;;30.63;14.00;;;;;;;10.12;32.45;101517.44;4974366;28;20042;-62
2022/03/20 06:30:08;;;;;;;17.53;9.27;;;;;;;10.27;32.26;101515.50;4973103;28;20057;-66
2022/03/20 06:32:37;;;;;;;16.13;7.43;;;;;;;10.38;32.20;101514.72;4972698;28;20047;-61
2022/03/20 06:35:07;;;;;;;14.23;6.90;;;;;;;10.62;32.14;101508.47;4957302;28;20050;-64
2022/03/20 06:37:37;;;;;;;13.83;6.13;;;;;;;10.69;32.01;101485.75;4998447;28;20096;-63
2022/03/20 06:40:03;;;;;;;11.73;6.00;;;;;;;10.86;31.77;101496.00;4979162;28;20042;-65
2022/03/20 06:42:30;;;;;;;9.43;5.32;;;;;;;10.91;31.43;101498.31;4978972;28;20119;-68
2022/03/20 06:44:59;;;;;;;11.13;5.88;;;;;;;11.15;31.33;101491.13;5012798;28;20083;-68
2022/03/20 06:47:26;;;;;;;9.57;5.45;;;;;;;11.25;31.28;101485.00;4994891;28;20084;-69
2022/03/20 06:49:53;;;;;;;11.93;5.05;;;;;;;11.53;30.76;101481.88;5012392;28;20054;-69
2022/03/20 06:52:22;;;;;;;9.95;5.47;;;;;;;11.93;30.33;101479.66;5011000;28;20046;-67
2022/03/20 06:54:49;;;;;;;11.55;6.70;;;;;;;12.08;29.77;101478.44;5011391;28;20448;-68
2022/03/20 06:57:18;;;;;;;11.80;6.72;;;;;;;12.31;29.55;101477.41;4995038;28;20042;-66
2022/03/20 06:59:45;;;;;;;10.30;6.07;;;;;;;12.41;29.19;101475.69;5012111;28;20065;-71
2022/03/20 07:02:11;;;;;;;19.02;6.30;;;;;;;12.53;28.96;101485.34;5011171;28;20081;-66
2022/03/20 07:04:37;;;;;;;17.17;6.55;;;;;;;12.67;28.57;101478.91;4995156;28;20073;-65
2022/03/20 07:07:04;;;;;;;19.75;5.95;;;;;;;12.86;28.61;101487.91;5012210;28;20057;-72
2022/03/20 07:09:29;;;;;;;12.85;5.53;;;;;;;12.98;28.23;101484.19;5011402;28;20038;-67
2022/03/20 07:11:55;;;;;;;17.52;5.60;;;;;;;13.07;28.10;101448.78;4994470;28;20113;-67
2022/03/20 07:14:21;;;;;;;13.48;5.18;;;;;;;13.42;27.72;101477.81;4994394;28;20056;-67
2022/03/20 07:16:47;;;;;;;18.58;6.18;;;;;;;13.61;27.17;101474.41;5011981;28;20037;-67
2022/03/20 07:19:13;;;;;;;18.13;6.10;;;;;;;13.78;27.06;101477.28;4994386;28;20568;-66
2022/03/20 07:21:40;;;;;;;18.35;6.80;;;;;;;14.12;26.55;101457.31;4994706;28;20048;-67
2022/03/20 07:24:06;;;;;;;16.33;6.55;;;;;;;14.36;26.69;101473.03;5010816;28;20038;-69
2022/03/20 07:29:32;;;;;;;11.77;5.70;;;;;;;15.08;25.36;101456.41;4993635;28;20042;-68
2022/03/20 07:31:58;;;;;;;;;;;;;;;16.78;23.21;101463.88;4996875;28;20049;-67
2022/03/20 07:34:24;;;;;;;11.82;5.30;;;;;;;19.59;20.18;101464.97;4993917;28;20020;-69
2022/03/20 07:36:51;;;;;;;16.85;5.53;;;;;;;23.04;16.54;101464.56;5011536;28;20140;-68
2022/03/20 07:39:19;;;;;;;13.25;5.20;;;;;;;26.10;13.71;101467.47;5010352;28;20428;-67
2022/03/20 07:41:49;;;;;;;9.50;5.53;;;;;;;28.32;11.58;101452.09;4993556;28;20038;-68
2022/03/20 07:44:24;;;;;;;11.80;6.20;;;;;;;30.32;10.21;101459.03;4978829;28;20078;-68
2022/03/20 07:46:55;;;;;;;13.68;7.57;;;;;;;32.07;8.79;101450.28;5009549;28;20125;-68
2022/03/20 07:49:23;;;;;;;14.23;6.50;;;;;;;33.39;7.55;101428.56;5010899;28;20100;-68
2022/03/20 07:51:50;;;;;;;11.23;6.10;;;;;;;33.71;7.38;101432.06;5009803;28;20129;-69
2022/03/20 07:54:16;;;;;;;10.95;5.90;;;;;;;34.00;7.22;101441.63;5010967;28;20124;-67
2022/03/20 07:56:42;;;;;;;11.00;6.10;;;;;;;35.23;6.52;101440.53;4993584;28;20217;-69
2022/03/20 07:59:09;;;;;;;12.70;5.88;;;;;;;35.93;6.14;101446.00;5009529;28;20417;-69
2022/03/20 08:01:38;;;;;;;15.25;6.05;;;;;;;36.43;5.91;101437.50;5009898;28;20088;-68
2022/03/20 08:04:04;;;;;;;10.07;5.63;;;;;;;37.28;5.45;101429.69;5009731;28;20136;-68
2022/03/20 08:06:30;;;;;;;11.35;5.80;;;;;;;37.56;5.00;101415.84;4993109;28;20133;-68
2022/03/20 08:08:59;;;;;;;11.07;5.57;;;;;;;37.28;4.90;101413.91;5009448;28;20168;-67
2022/03/20 08:11:31;;;;;;;22.08;6.18;;;;;;;37.68;4.54;101418.22;4993861;28;20073;-78
2022/03/20 08:13:58;;;;;;;17.77;6.97;;;;;;;37.45;5.26;101417.06;5010674;28;20072;-68
2022/03/20 08:16:26;;;;;;;11.85;6.47;;;;;;;37.93;4.50;101413.22;4993086;28;20452;-69
2022/03/20 08:18:53;;;;;;;15.85;5.78;;;;;;;37.31;4.60;101402.22;5009333;28;20041;-69
2022/03/20 08:21:19;;;;;;;11.73;5.82;;;;;;;37.40;4.76;101399.66;4993206;28;20042;-69
2022/03/20 08:23:45;;;;;;;20.42;6.07;;;;;;;37.88;4.49;101399.41;5009326;28;20037;-68
2022/03/20 08:26:11;;;;;;;12.98;5.70;;;;;;;38.26;4.33;101392.81;4993064;28;20037;-69
2022/03/20 08:28:44;;;;;;;11.15;5.53;;;;;;;38.64;3.88;101388.91;5010539;28;20052;-70
2022/03/20 08:31:10;;;;;;;13.38;4.95;;;;;;;38.56;4.01;101388.78;4993602;28;20034;-72
2022/03/20 08:33:35;;;;;;;11.50;5.35;;;;;;;38.68;3.78;101372.47;5009730;28;20460;-73
2022/03/20 08:36:08;;;;;;;9.82;4.63;;;;;;;39.03;3.72;101373.88;5011192;28;20042;-73
2022/03/20 08:38:41;;;;;;;11.25;4.80;;;;;;;39.32;3.80;101371.66;5000321;28;20046;-71
2022/03/20 08:41:07;;;;;;;10.23;5.18;;;;;;;39.18;3.58;101352.16;4993561;28;20052;-71
2022/03/20 08:43:33;;;;;;;11.63;4.82;;;;;;;39.41;3.54;101361.47;4977178;28;20041;-70
2022/03/20 08:45:59;;;;;;;12.32;4.50;;;;;;;39.77;3.59;101354.88;5009412;28;20042;-70
2022/03/20 08:48:24;;;;;;;9.70;4.50;;;;;;;39.77;3.09;101348.50;5009307;28;20180;-72
2022/03/20 08:50:50;;;;;;;12.40;5.18;;;;;;;39.61;3.29;101336.06;5009279;28;20521;-69
2022/03/20 08:53:17;;;;;;;9.95;5.43;;;;;;;39.14;3.18;101347.50;4993340;28;20038;-69
2022/03/20 08:55:47;;;;;;;8.23;4.30;;;;;;;39.54;3.24;101341.19;4991456;28;20502;-71
2022/03/20 08:58:13;;;;;;;9.38;3.97;;;;;;;39.92;3.05;101329.53;4972610;28;20437;-72
2022/03/20 09:00:40;;;;;;;12.20;4.30;;;;;;;40.32;2.93;101316.66;4988444;28;20069;-69
2022/03/20 09:03:06;;;;;;;10.70;4.10;;;;;;;40.93;2.84;101327.13;4988480;28;20053;-71
2022/03/20 09:05:33;;;;;;;11.15;3.60;;;;;;;40.89;2.64;101326.13;4973285;28;20046;-71
2022/03/20 09:07:59;;;;;;;8.75;4.05;;;;;;;40.76;2.75;101313.91;4990291;28;20479;-70
2022/03/20 09:10:25;;;;;;;8.90;4.32;;;;;;;40.79;2.47;101312.44;4973129;28;20048;-69
2022/03/20 09:12:55;;;;;;;10.30;3.35;;;;;;;40.89;2.38;101301.03;4957400;28;20082;-69
2022/03/20 09:15:22;;;;;;;9.90;3.22;;;;;;;40.50;2.47;101306.47;4957699;28;20053;-69
2022/03/20 09:20:34;;;;;;;11.98;3.60;;;;;;;40.88;2.63;101303.00;4973324;28;20046;-69
2022/03/20 09:23:00;;;;;;;10.57;3.45;;;;;;;40.52;2.52;101285.50;4989236;28;20038;-68
2022/03/20 09:25:26;;;;;;;9.85;3.63;;;;;;;40.05;2.53;101298.06;4989359;28;20042;-68
2022/03/20 09:27:52;;;;;;;7.30;3.40;;;;;;;39.79;2.52;101291.41;4972937;28;20405;-70
2022/03/20 09:30:21;;;;;;;9.82;3.17;;;;;;;40.38;2.48;101289.53;4942795;28;20042;-66
2022/03/20 09:32:48;;;;;;;10.13;3.15;;;;;;;40.46;2.49;101292.34;4990974;28;20042;-69
2022/03/20 09:35:15;;;;;;;9.75;3.13;;;;;;;40.49;2.06;101291.72;4989616;28;20065;-70
2022/03/20 09:37:41;;;;;;;7.95;2.92;;;;;;;40.39;2.33;101288.38;4990000;28;20054;-71
2022/03/20 09:40:12;;;;;;;8.15;3.00;;;;;;;39.86;2.06;101269.56;4973303;28;20125;-72
2022/03/20 09:42:38;;;;;;;11.10;3.38;;;;;;;38.98;2.51;101283.03;4989200;28;20046;-70
2022/03/20 09:45:07;;;;;;;8.45;2.90;;;;;;;39.02;2.40;101263.78;4972878;28;20141;-71
2022/03/20 09:47:40;;;;;;;6.50;2.92;;;;;;;38.83;2.59;101269.41;4973015;28;20086;-68
2022/03/20 09:50:09;;;;;;;6.57;2.95;;;;;;;38.55;2.55;101259.38;4989524;28;20059;-68
2022/03/20 09:52:37;;;;;;;8.23;2.70;;;;;;;38.72;1.78;101252.09;4992260;28;20088;-68
2022/03/20 09:55:05;;;;;;;5.75;2.55;;;;;;;38.86;2.17;101254.91;4992707;28;20449;-68
2022/03/20 09:57:31;;;;;;;9.00;3.20;;;;;;;38.58;1.93;101242.91;4993745;28;20089;-67
2022/03/20 09:59:58;;;;;;;10.98;3.83;;;;;;;37.68;2.09;101241.53;4993370;28;20211;-70
2022/03/20 10:02:28;;;;;;;6.65;3.42;;;;;;;36.72;2.62;101238.19;4976345;28;20072;-73
2022/03/20 10:05:01;;;;;;;7.57;2.70;;;;;;;37.19;2.76;101235.47;4992088;28;20062;-70
2022/03/20 10:07:29;;;;;;;9.15;2.50;;;;;;;38.08;2.00;101229.84;4993334;28;20121;-70
2022/03/20 10:10:17;;;;;;;11.68;2.50;;;;;;;38.47;1.71;101221.97;4991936;28;20038;-77
2022/03/20 10:12:45;;;;;;;4.15;2.50;;;;;;;39.00;2.04;101224.38;4975960;28;20149;-72
2022/03/20 10:15:31;;;;;;;10.98;3.03;;;;;;;39.78;1.32;101220.16;4993530;28;20038;-71
2022/03/20 10:18:15;;;;;;;11.82;2.80;;;;;;;40.78;0.81;101222.41;4975910;28;20125;-69
2022/03/20 10:20:49;;;;;;;9.48;3.20;;;;;;;40.89;0.80;101203.47;4959919;28;20545;-70
2022/03/20 10:23:33;;;;;;;8.70;3.80;;;;;;;41.27;0.90;101207.41;4992004;28;20042;-70
2022/03/20 10:26:03;;;;;;;12.30;3.30;;;;;;;40.65;0.74;101201.03;4991946;28;20425;-71
2022/03/20 10:28:42;;;;;;;6.30;2.70;;;;;;;38.94;1.20;101184.72;4993501;28;20490;-70
2022/03/20 10:31:15;;;;;;;5.90;3.05;;;;;;;38.27;1.87;101186.22;4992088;28;20053;-70
2022/03/20 10:33:43;;;;;;;15.05;2.45;;;;;;;38.49;1.38;101182.78;4992218;28;20125;-68
2022/03/20 10:36:17;;;;;;;7.57;2.88;;;;;;;38.65;1.01;101185.00;4975721;28;20386;-70
2022/03/20 10:38:45;;;;;;;12.57;2.47;;;;;;;39.16;1.06;101162.59;4975846;28;20426;-73
2022/03/20 10:41:18;;;;;;;6.07;2.10;;;;;;;39.93;0.87;101166.97;4959345;28;20042;-69
2022/03/20 10:43:45;;;;;;;9.40;2.55;;;;;;;40.22;0.72;101164.56;4993376;28;20067;-69
2022/03/20 10:46:19;;;;;;;8.45;2.10;;;;;;;39.74;0.51;101168.25;4985040;28;20596;-69
2022/03/20 10:48:47;;;;;;;3.67;2.00;;;;;;;39.36;0.78;101151.03;4991734;28;20042;-70
2022/03/20 10:51:12;;;;;;;5.85;2.05;;;;;;;38.49;1.28;101146.66;4974094;28;20062;-71
2022/03/20 10:54:01;;;;;;;14.38;2.60;;;;;;;37.87;1.34;101150.81;4974111;28;21023;-71
2022/03/20 10:56:27;;;;;;;7.18;2.50;;;;;;;37.81;1.14;101140.91;4974517;28;20045;-71
2022/03/20 10:58:53;;;;;;;12.40;2.33;;;;;;;37.63;1.45;101147.28;4974134;28;20050;-70
2022/03/20 11:01:33;;;;;;;10.27;2.75;;;;;;;37.82;1.15;101130.63;4957998;28;20081;-70
2022/03/20 11:04:00;;;;;;;9.98;2.10;;;;;;;36.93;1.40;101126.91;4988722;28;20039;-75
2022/03/20 11:06:25;;;;;;;5.68;2.50;;;;;;;37.04;1.73;101130.38;4974222;28;20042;-70
2022/03/20 11:08:51;;;;;;;7.70;2.33;;;;;;;37.45;1.56;101122.31;4974279;28;20104;-69
2022/03/20 11:11:18;;;;;;;10.55;2.17;;;;;;;37.24;1.48;101121.81;4944439;28;20037;-69
2022/03/20 11:13:47;;;;;;;8.50;2.28;;;;;;;36.96;1.51;101109.69;4985494;28;20053;-71
2022/03/20 11:16:16;;;;;;;9.48;2.95;;;;;;;37.29;1.54;101109.81;5024461;28;20513;-69
2022/03/20 11:18:43;;;;;;;7.97;2.60;;;;;;;37.51;1.30;101104.47;5005384;28;20042;-69
2022/03/20 11:21:09;;;;;;;9.15;2.58;;;;;;;37.45;1.44;101089.88;4993417;28;20052;-69
2022/03/20 11:23:35;;;;;;;11.30;2.85;;;;;;;37.08;1.67;101099.00;4991358;28;20822;-69
2022/03/20 11:26:03;;;;;;;10.68;2.05;;;;;;;36.45;1.90;101089.22;4993224;28;20042;-68
2022/03/20 11:28:36;;;;;;;12.18;2.33;;;;;;;36.00;1.88;101094.38;5009416;28;20516;-68
2022/03/20 11:31:02;;;;;;;12.23;2.65;;;;;;;35.62;2.11;101096.88;5009290;28;20050;-69
2022/03/20 11:33:28;;;;;;;10.60;2.05;;;;;;;35.63;2.22;101092.97;5008963;28;20049;-68
2022/03/20 11:35:54;;;;;;;16.65;3.15;;;;;;;35.63;2.12;101064.50;5009230;28;20045;-67
2022/03/20 11:38:24;;;;;;;10.25;2.28;;;;;;;35.37;1.99;101086.00;5006034;28;20206;-68
2022/03/20 11:41:23;;;;;;;7.90;2.90;;;;;;;34.74;2.30;101080.47;5005943;28;20054;-69
2022/03/20 11:44:15;;;;;;;9.15;2.35;;;;;;;34.68;2.32;101071.38;4963765;28;20406;-74
2022/03/20 11:46:42;;;;;;;6.45;2.30;;;;;;;34.22;2.50;101064.31;4973774;28;20050;-68
2022/03/20 11:49:15;;;;;;;12.13;2.17;;;;;;;33.05;3.26;101052.66;4973975;28;20038;-68
2022/03/20 11:51:51;;;;;;;6.53;1.90;;;;;;;31.80;3.56;101052.75;4958053;28;20103;-67
2022/03/20 11:54:18;;;;;;;10.85;4.00;;;;;;;30.76;3.88;101059.63;4991214;28;20477;-67
2022/03/20 11:56:45;;;;;;;6.32;1.77;;;;;;;29.88;4.46;101064.31;5005945;28;20181;-71